Seal Beach, California
Current Conditions -  °F | °C
As of 3:28 AM on Tuesday 21 Oct 2014 (Local Time) from KSLI Reporting Station
Broken Clouds Broken Clouds  
Wind Chill: 64°   Ceiling: 1500
Heat Index: 64°   Visibility: 10mi
Dew Point: 61°   Wind: 2mph
Humidity: 88%   Direction: NA
Pressure: 29.89"   Gusts: NA
Location:  33.74°N, 118.1°W
Report Text: KSLI 211028Z AUTO VRB02KT 10SM BKN015 18/16 A2989 RMK AO2 BKN V SCT
Loading
Personal Weather Stations






























Interactive Weather Map
Tropical Storm Tracking
New forecast layout! Learn more

10-Day Weather Forecast

Advertisements
Track Severe Weather on mobile